createdAt,value
2018-12-22T00:01:25.821Z,4.60
2018-12-22T00:03:55.652Z,4.57
2018-12-22T00:06:25.585Z,5.70
2018-12-22T00:08:56.613Z,4.93
2018-12-22T00:11:26.533Z,4.70
2018-12-22T00:13:56.441Z,4.53
2018-12-22T00:16:26.357Z,4.90
2018-12-22T00:18:56.377Z,4.97
2018-12-22T00:21:26.244Z,5.10
2018-12-22T00:23:56.228Z,4.17
2018-12-22T00:26:26.121Z,4.33
2018-12-22T00:28:56.139Z,4.20
2018-12-22T00:31:26.084Z,4.90
2018-12-22T00:33:56.026Z,4.77
2018-12-22T00:36:25.989Z,3.87
2018-12-22T00:38:55.902Z,4.90
2018-12-22T00:41:25.813Z,3.87
2018-12-22T00:43:55.628Z,4.80
2018-12-22T00:46:25.553Z,5.43
2018-12-22T00:48:55.561Z,4.53
2018-12-22T00:51:25.386Z,5.10
2018-12-22T00:53:55.301Z,5.30
2018-12-22T00:56:25.100Z,5.13
2018-12-22T00:58:55.126Z,4.77
2018-12-22T01:01:25.268Z,4.80
2018-12-22T01:03:55.219Z,4.63
2018-12-22T01:06:25.205Z,4.23
2018-12-22T01:08:55.118Z,4.70
2018-12-22T01:11:25.106Z,4.40
2018-12-22T01:13:55.121Z,4.87
2018-12-22T01:16:24.932Z,5.07
2018-12-22T01:18:54.949Z,4.70
2018-12-22T01:21:24.897Z,5.80
2018-12-22T01:23:54.943Z,6.17
2018-12-22T01:26:24.880Z,5.07
2018-12-22T01:28:54.816Z,5.03
2018-12-22T01:31:24.764Z,5.23
2018-12-22T01:33:54.645Z,5.03
2018-12-22T01:36:24.561Z,4.70
2018-12-22T01:38:54.582Z,4.80
2018-12-22T01:41:24.451Z,5.57
2018-12-22T01:43:54.438Z,5.50
2018-12-22T01:46:24.325Z,5.67
2018-12-22T01:48:54.346Z,5.57
2018-12-22T01:51:24.257Z,5.30
2018-12-22T01:53:54.128Z,5.73
2018-12-22T01:56:24.085Z,5.73
2018-12-22T01:58:54.009Z,5.63
2018-12-22T02:01:23.922Z,4.47
2018-12-22T02:03:54.138Z,6.33
2018-12-22T02:06:23.969Z,5.30
2018-12-22T02:08:53.969Z,5.33
2018-12-22T02:11:24.029Z,5.83
2018-12-22T02:13:53.959Z,5.67
2018-12-22T02:16:24.020Z,5.70
2018-12-22T02:18:54.074Z,5.90
2018-12-22T02:21:23.966Z,5.60
2018-12-22T02:23:53.900Z,6.13
2018-12-22T02:26:23.785Z,5.90
2018-12-22T02:28:56.843Z,5.27
2018-12-22T02:31:25.765Z,5.50
2018-12-22T02:33:55.698Z,4.93
2018-12-22T02:36:25.698Z,4.27
2018-12-22T02:38:55.720Z,5.10
2018-12-22T02:41:25.777Z,6.13
2018-12-22T02:43:55.646Z,5.80
2018-12-22T02:46:25.629Z,5.33
2018-12-22T02:48:55.478Z,4.90
2018-12-22T02:51:25.494Z,5.10
2018-12-22T02:53:55.414Z,5.30
2018-12-22T02:56:25.228Z,5.13
2018-12-22T02:58:55.241Z,4.50
2018-12-22T03:01:25.059Z,5.17
2018-12-22T03:03:55.274Z,5.10
2018-12-22T03:06:25.216Z,5.20
2018-12-22T03:08:55.111Z,5.43
2018-12-22T03:11:25.017Z,5.80
2018-12-22T03:13:54.838Z,5.27
2018-12-22T03:16:24.759Z,5.33
2018-12-22T03:18:54.792Z,5.73
2018-12-22T03:21:24.442Z,6.23
2018-12-22T03:23:54.442Z,5.90
2018-12-22T03:26:24.320Z,4.67
2018-12-22T03:28:54.349Z,5.33
2018-12-22T03:31:24.245Z,5.47
2018-12-22T03:33:54.151Z,5.10
2018-12-22T03:36:23.984Z,5.27
2018-12-22T03:38:53.982Z,5.90
2018-12-22T03:41:23.928Z,5.70
2018-12-22T03:43:53.832Z,5.40
2018-12-22T03:46:23.757Z,5.23
2018-12-22T03:48:53.685Z,6.67
2018-12-22T03:51:23.684Z,5.73
2018-12-22T03:53:53.677Z,5.53
2018-12-22T03:56:23.589Z,6.00
2018-12-22T03:58:53.710Z,5.73
2018-12-22T04:01:23.525Z,5.67
2018-12-22T04:03:53.437Z,5.30
2018-12-22T04:06:23.384Z,5.77
2018-12-22T04:08:53.270Z,5.30
2018-12-22T04:11:23.220Z,6.03
2018-12-22T04:13:53.097Z,5.23
2018-12-22T04:16:23.080Z,6.47
2018-12-22T04:18:52.928Z,6.13
2018-12-22T04:21:22.842Z,6.00
2018-12-22T04:23:52.810Z,5.93
2018-12-22T04:26:22.778Z,5.23
2018-12-22T04:28:52.792Z,6.80
2018-12-22T04:31:22.613Z,5.30
2018-12-22T04:33:52.522Z,5.60
2018-12-22T04:36:22.437Z,6.37
2018-12-22T04:38:52.407Z,6.13
2018-12-22T04:41:22.382Z,5.40
2018-12-22T04:43:52.180Z,6.13
2018-12-22T04:46:22.098Z,5.77
2018-12-22T04:48:52.169Z,6.00
2018-12-22T04:51:22.164Z,5.33
2018-12-22T04:53:52.202Z,6.53
2018-12-22T04:56:22.064Z,5.03
2018-12-22T04:58:52.108Z,5.87
2018-12-22T05:01:22.096Z,6.07
2018-12-22T05:03:51.966Z,6.07
2018-12-22T05:06:21.870Z,5.40
2018-12-22T05:08:51.750Z,5.73
2018-12-22T05:11:21.654Z,5.60
2018-12-22T05:13:51.474Z,5.87
2018-12-22T05:16:21.381Z,6.27
2018-12-22T05:18:51.426Z,6.07
2018-12-22T05:21:21.371Z,7.37
2018-12-22T05:23:51.329Z,6.20
2018-12-22T05:26:21.140Z,5.23
2018-12-22T05:28:51.162Z,6.03
2018-12-22T05:31:21.104Z,5.80
2018-12-22T05:33:50.989Z,6.13
2018-12-22T05:36:20.906Z,6.00
2018-12-22T05:38:50.841Z,5.57
2018-12-22T05:41:20.734Z,6.67
2018-12-22T05:43:50.676Z,6.33
2018-12-22T05:46:20.567Z,5.80
2018-12-22T05:48:50.585Z,5.40
2018-12-22T05:51:20.405Z,6.10
2018-12-22T05:53:50.308Z,5.37
2018-12-22T05:56:20.175Z,6.10
2018-12-22T05:58:50.141Z,5.97
2018-12-22T06:01:20.055Z,6.20
2018-12-22T06:03:49.974Z,6.40
2018-12-22T06:06:19.915Z,5.70
2018-12-22T06:08:49.909Z,5.50
2018-12-22T06:11:19.816Z,5.67
2018-12-22T06:13:49.762Z,5.67
2018-12-22T06:16:19.645Z,6.53
2018-12-22T06:18:49.669Z,5.53
2018-12-22T06:21:19.472Z,5.83
2018-12-22T06:23:49.394Z,7.50
2018-12-22T06:26:19.337Z,5.57
2018-12-22T06:28:49.253Z,6.43
2018-12-22T06:31:19.273Z,6.57
2018-12-22T06:33:49.157Z,6.47
2018-12-22T06:36:19.280Z,6.87
2018-12-22T06:38:49.322Z,6.13
2018-12-22T06:41:19.204Z,5.63
2018-12-22T06:43:49.122Z,6.03
2018-12-22T06:46:19.067Z,8.00
2018-12-22T06:48:48.961Z,6.90
2018-12-22T06:51:18.892Z,6.47
2018-12-22T06:53:48.943Z,5.80
2018-12-22T06:56:18.900Z,6.40
2018-12-22T06:58:48.944Z,6.03
2018-12-22T07:01:18.832Z,6.87
2018-12-22T07:03:48.779Z,6.80
2018-12-22T07:06:19.000Z,5.63
2018-12-22T07:08:48.989Z,6.47
2018-12-22T07:11:18.905Z,5.47
2018-12-22T07:13:48.718Z,6.13
2018-12-22T07:16:18.634Z,5.47
2018-12-22T07:18:48.556Z,6.50
2018-12-22T07:21:18.465Z,6.13
2018-12-22T07:23:48.407Z,6.67
2018-12-22T07:26:18.194Z,5.63
2018-12-22T07:28:48.233Z,5.97
2018-12-22T07:31:18.120Z,6.07
2018-12-22T07:33:48.041Z,6.23
2018-12-22T07:36:18.769Z,5.80
2018-12-22T07:38:48.823Z,6.90
2018-12-22T07:41:18.760Z,6.13
2018-12-22T07:43:48.722Z,6.70
2018-12-22T07:46:18.547Z,6.13
2018-12-22T07:48:48.548Z,6.10
2018-12-22T07:51:18.668Z,7.07
2018-12-22T07:53:48.481Z,6.70
2018-12-22T07:56:18.663Z,6.20
2018-12-22T07:58:48.645Z,6.80
2018-12-22T08:01:19.901Z,8.47
2018-12-22T08:03:50.017Z,7.30
2018-12-22T08:06:19.959Z,6.47
2018-12-22T08:08:50.846Z,6.53
2018-12-22T08:11:20.956Z,6.20
2018-12-22T08:13:50.873Z,6.20
2018-12-22T08:16:20.685Z,7.93
2018-12-22T08:18:50.701Z,7.00
2018-12-22T08:21:20.521Z,6.90
2018-12-22T08:23:50.329Z,6.93
2018-12-22T08:26:20.302Z,6.70
2018-12-22T08:28:50.169Z,7.37
2018-12-22T08:31:20.117Z,6.40
2018-12-22T08:33:50.014Z,6.53
2018-12-22T08:36:20.005Z,5.20
2018-12-22T08:38:50.053Z,6.07
2018-12-22T08:41:19.995Z,6.37
2018-12-22T08:43:49.857Z,6.43
2018-12-22T08:46:19.666Z,6.20
2018-12-22T08:48:49.688Z,6.63
2018-12-22T08:51:19.600Z,6.37
2018-12-22T08:53:49.520Z,6.80
2018-12-22T08:56:19.453Z,6.10
2018-12-22T08:58:49.341Z,6.90
2018-12-22T09:01:19.260Z,5.80
2018-12-22T09:03:48.825Z,5.90
2018-12-22T09:06:18.686Z,7.43
2018-12-22T09:08:48.596Z,6.53
2018-12-22T09:11:18.519Z,6.77
2018-12-22T09:13:48.373Z,6.07
2018-12-22T09:16:18.340Z,6.53
2018-12-22T09:18:48.357Z,7.30
2018-12-22T09:21:18.189Z,7.33
2018-12-22T09:23:48.180Z,8.13
2018-12-22T09:26:18.102Z,6.80
2018-12-22T09:28:48.077Z,6.87
2018-12-22T09:31:18.053Z,6.07
2018-12-22T09:33:48.018Z,7.67
2018-12-22T09:36:17.976Z,6.57
2018-12-22T09:38:48.012Z,5.67
2018-12-22T09:41:17.987Z,6.57
2018-12-22T09:43:48.023Z,6.63
2018-12-22T09:46:17.888Z,9.67
2018-12-22T09:48:49.835Z,7.60
2018-12-22T09:51:19.841Z,7.43
2018-12-22T09:53:49.781Z,6.53
2018-12-22T09:56:19.741Z,6.87
2018-12-22T09:58:49.683Z,6.37
2018-12-22T10:01:19.681Z,7.03
2018-12-22T10:03:49.621Z,6.90
2018-12-22T10:06:19.564Z,7.73
2018-12-22T10:08:49.550Z,6.33
2018-12-22T10:11:19.575Z,6.40
2018-12-22T10:13:49.658Z,6.13
2018-12-22T10:16:19.604Z,5.97
2018-12-22T10:18:49.497Z,6.40
2018-12-22T10:21:19.437Z,6.50
2018-12-22T10:23:49.442Z,5.40
2018-12-22T10:26:19.446Z,5.17
2018-12-22T10:28:49.486Z,6.00
2018-12-22T10:31:19.475Z,5.10
2018-12-22T10:33:49.388Z,5.80
2018-12-22T10:36:19.269Z,6.00
2018-12-22T10:38:49.116Z,5.70
2018-12-22T10:41:19.056Z,4.83
2018-12-22T10:43:49.076Z,4.37
2018-12-22T10:46:19.064Z,4.83
2018-12-22T10:48:49.116Z,5.40
2018-12-22T10:51:24.174Z,5.17
2018-12-22T10:53:51.019Z,5.13
2018-12-22T10:56:20.880Z,5.53
2018-12-22T10:58:50.817Z,6.13
2018-12-22T11:01:26.519Z,5.00
2018-12-22T11:03:53.086Z,5.10
2018-12-22T11:06:23.026Z,4.60
2018-12-22T11:08:52.972Z,5.23
2018-12-22T11:11:22.834Z,6.13
2018-12-22T11:13:52.841Z,5.90
2018-12-22T11:16:22.758Z,5.67
2018-12-22T11:18:52.780Z,5.33
2018-12-22T11:21:22.601Z,5.90
2018-12-22T11:23:52.504Z,5.70
2018-12-22T11:26:22.309Z,5.60
2018-12-22T11:28:52.329Z,5.20
2018-12-22T11:31:22.302Z,4.63
2018-12-22T11:33:52.190Z,5.90
2018-12-22T11:36:22.176Z,4.60
2018-12-22T11:38:52.105Z,5.27
2018-12-22T11:41:22.006Z,5.03
2018-12-22T11:43:51.925Z,5.00
2018-12-22T11:46:21.795Z,5.10
2018-12-22T11:49:11.675Z,4.63
2018-12-22T11:51:41.591Z,5.03
2018-12-22T11:54:11.581Z,4.57
2018-12-22T11:56:41.469Z,4.10
2018-12-22T11:59:11.482Z,4.07
2018-12-22T12:01:43.648Z,4.50
2018-12-22T12:04:13.599Z,4.23
2018-12-22T12:06:43.538Z,4.03
2018-12-22T12:09:14.477Z,3.87
2018-12-22T12:11:44.438Z,4.15
2018-12-22T12:14:14.306Z,3.70
2018-12-22T12:18:58.470Z,4.22
2018-12-22T12:21:28.444Z,3.87
2018-12-22T12:24:00.402Z,4.45
2018-12-22T12:26:30.309Z,3.70
2018-12-22T12:29:00.224Z,3.92
2018-12-22T12:31:30.164Z,3.92
2018-12-22T12:34:01.107Z,3.65
2018-12-22T12:36:30.994Z,3.83
2018-12-22T12:39:01.008Z,3.37
2018-12-22T12:41:30.957Z,3.80
2018-12-22T12:44:00.897Z,3.60
2018-12-22T12:46:44.990Z,3.45
2018-12-22T12:49:15.621Z,3.42
2018-12-22T12:51:45.569Z,4.10
2018-12-22T12:54:15.654Z,4.05
2018-12-22T12:56:57.711Z,4.50
2018-12-22T12:59:28.827Z,3.65
2018-12-22T13:02:01.267Z,3.50
2018-12-22T13:04:31.085Z,3.67
2018-12-22T13:07:00.957Z,4.35
2018-12-22T13:09:31.042Z,4.12
2018-12-22T13:12:07.589Z,4.03
2018-12-22T13:14:37.402Z,4.20
2018-12-22T13:17:07.319Z,3.35
2018-12-22T13:19:37.349Z,3.67
2018-12-22T13:22:07.351Z,4.20
2018-12-22T13:24:37.397Z,3.98
2018-12-22T13:27:07.449Z,3.80
2018-12-22T13:29:37.431Z,3.92
2018-12-22T13:32:09.829Z,4.33
2018-12-22T13:34:39.201Z,3.85
2018-12-22T13:37:09.225Z,3.87
2018-12-22T13:39:39.142Z,4.05
2018-12-22T13:42:09.134Z,4.22
2018-12-22T13:44:39.075Z,4.05
2018-12-22T13:47:08.977Z,3.98
2018-12-22T13:49:38.979Z,4.00
2018-12-22T13:52:09.021Z,5.08
2018-12-22T13:54:39.009Z,4.75
2018-12-22T13:57:08.953Z,4.13
2018-12-22T13:59:38.955Z,4.20
2018-12-22T14:02:14.389Z,4.30
2018-12-22T14:04:41.250Z,4.00
2018-12-22T14:07:12.577Z,4.27
2018-12-22T14:09:42.598Z,4.73
2018-12-22T14:12:12.614Z,4.60
2018-12-22T14:14:43.097Z,4.00
2018-12-22T14:17:22.510Z,6.63
2018-12-22T14:19:56.730Z,4.40
2018-12-22T14:22:26.637Z,4.03
2018-12-22T14:24:57.173Z,4.43
2018-12-22T14:27:27.089Z,4.70
2018-12-22T14:29:56.969Z,4.40
2018-12-22T14:32:27.241Z,5.10
2018-12-22T14:35:11.952Z,4.07
2018-12-22T14:37:41.968Z,3.87
2018-12-22T14:40:12.396Z,4.33
2018-12-22T14:42:42.268Z,4.10
2018-12-22T14:45:13.202Z,4.10
2018-12-22T14:47:43.268Z,5.90
2018-12-22T14:50:13.411Z,5.87
2018-12-22T14:52:43.445Z,4.50
2018-12-22T14:55:13.426Z,5.47
2018-12-22T14:57:48.182Z,5.23
2018-12-22T15:00:18.092Z,6.30
2018-12-22T15:02:48.085Z,6.87
2018-12-22T15:05:17.942Z,6.50
2018-12-22T15:07:48.019Z,6.83
2018-12-22T15:10:18.442Z,5.90
2018-12-22T15:12:48.314Z,5.50
2018-12-22T15:15:18.377Z,6.53
2018-12-22T15:17:48.424Z,5.67
2018-12-22T15:20:20.281Z,5.70
2018-12-22T15:22:50.281Z,4.70
2018-12-22T15:25:20.094Z,3.90
2018-12-22T15:27:50.137Z,4.10
2018-12-22T15:30:20.117Z,4.27
2018-12-22T15:32:54.341Z,5.17
2018-12-22T15:35:22.009Z,6.23
2018-12-22T15:37:51.971Z,5.93
2018-12-22T15:40:21.952Z,5.13
2018-12-22T15:42:51.889Z,4.70
2018-12-22T15:45:21.861Z,5.83
2018-12-22T15:47:51.904Z,6.03
2018-12-22T15:50:23.532Z,5.30
2018-12-22T15:52:53.560Z,6.20
2018-12-22T15:55:23.500Z,6.33
2018-12-22T15:57:53.427Z,5.00
2018-12-22T16:00:23.398Z,4.80
2018-12-22T16:02:53.655Z,5.30
2018-12-22T16:05:23.682Z,6.50
2018-12-22T16:07:53.684Z,5.33
2018-12-22T16:10:23.692Z,4.37
2018-12-22T16:12:53.797Z,5.33
2018-12-22T16:15:23.560Z,5.43
2018-12-22T16:17:54.579Z,5.03
2018-12-22T16:20:24.476Z,4.60
2018-12-22T16:22:57.965Z,4.80
2018-12-22T16:25:28.289Z,5.17
2018-12-22T16:28:02.732Z,5.67
2018-12-22T16:30:38.786Z,5.23
2018-12-22T16:33:08.781Z,5.33
2018-12-22T16:35:38.652Z,6.00
2018-12-22T16:38:09.764Z,10.60
2018-12-22T16:40:39.757Z,9.50
2018-12-22T16:43:12.393Z,8.73
2018-12-22T16:45:45.273Z,9.77
2018-12-22T16:48:16.360Z,9.53
2018-12-22T16:50:47.335Z,8.83
2018-12-22T16:53:17.315Z,9.13
2018-12-22T16:55:47.235Z,9.27
2018-12-22T16:58:28.617Z,7.73
2018-12-22T17:01:03.093Z,8.67
2018-12-22T17:03:33.185Z,10.10
2018-12-22T17:06:05.483Z,15.20
2018-12-22T17:08:37.579Z,11.30
2018-12-22T17:11:08.434Z,9.87
2018-12-22T17:13:38.377Z,9.90
2018-12-22T17:16:09.462Z,9.03
2018-12-22T17:18:39.338Z,9.10
2018-12-22T17:21:18.286Z,10.60
2018-12-22T17:24:01.766Z,7.63
2018-12-22T17:26:33.645Z,8.50
2018-12-22T17:29:03.638Z,6.80
2018-12-22T17:31:33.452Z,6.23
2018-12-22T17:34:03.365Z,7.40
2018-12-22T17:36:33.190Z,6.87
2018-12-22T17:39:04.017Z,6.87
2018-12-22T17:41:33.933Z,6.20
2018-12-22T17:44:03.845Z,7.47
2018-12-22T17:46:33.761Z,8.13
2018-12-22T17:49:03.808Z,7.83
2018-12-22T17:51:33.702Z,7.20
2018-12-22T17:54:03.609Z,8.27
2018-12-22T17:56:33.437Z,8.20
2018-12-22T17:59:03.541Z,7.83
2018-12-22T18:01:33.494Z,7.83
2018-12-22T18:04:03.532Z,6.80
2018-12-22T18:06:33.858Z,7.37
2018-12-22T18:09:04.712Z,6.77
2018-12-22T18:11:34.653Z,7.13
2018-12-22T18:14:04.549Z,7.07
2018-12-22T18:16:34.545Z,8.07
2018-12-22T18:19:04.424Z,7.20
2018-12-22T18:21:34.422Z,8.30
2018-12-22T18:24:04.356Z,9.90
2018-12-22T18:26:34.274Z,8.03
2018-12-22T18:29:04.298Z,7.13
2018-12-22T18:31:34.177Z,7.30
2018-12-22T18:34:04.198Z,7.57
2018-12-22T18:36:34.348Z,8.77
2018-12-22T18:39:05.385Z,8.90
2018-12-22T18:41:35.302Z,7.73
2018-12-22T18:44:05.188Z,7.60
2018-12-22T18:46:35.208Z,6.97
2018-12-22T18:49:05.116Z,7.93
2018-12-22T18:51:35.040Z,8.43
2018-12-22T18:54:04.977Z,7.93
2018-12-22T18:56:34.895Z,8.40
2018-12-22T18:59:04.893Z,8.33
2018-12-22T19:01:34.714Z,6.97
2018-12-22T19:04:04.709Z,7.50
2018-12-22T19:06:34.683Z,7.27
2018-12-22T19:09:09.892Z,8.03
2018-12-22T19:11:39.837Z,8.80
2018-12-22T19:14:09.798Z,6.90
2018-12-22T19:16:39.776Z,7.20
2018-12-22T19:19:09.730Z,8.43
2018-12-22T19:21:39.654Z,8.57
2018-12-22T19:24:09.561Z,7.63
2018-12-22T19:26:39.509Z,7.03
2018-12-22T19:29:09.398Z,7.40
2018-12-22T19:31:41.858Z,5.90
2018-12-22T19:34:11.431Z,9.10
2018-12-22T19:36:41.284Z,7.70
2018-12-22T19:39:11.409Z,8.37
2018-12-22T19:41:41.351Z,9.07
2018-12-22T19:44:11.242Z,9.47
2018-12-22T19:46:41.253Z,8.87
2018-12-22T19:49:11.297Z,8.63
2018-12-22T19:51:41.185Z,8.83
2018-12-22T19:54:11.124Z,8.13
2018-12-22T19:56:41.145Z,8.60
2018-12-22T19:59:11.040Z,8.57
2018-12-22T20:01:41.211Z,8.57
2018-12-22T20:04:11.179Z,7.57
2018-12-22T20:06:41.144Z,7.87
2018-12-22T20:09:12.183Z,8.10
2018-12-22T20:11:42.263Z,6.70
2018-12-22T20:14:12.162Z,8.40
2018-12-22T20:16:42.141Z,7.87
2018-12-22T20:19:12.098Z,8.70
2018-12-22T20:21:42.041Z,9.00
2018-12-22T20:24:12.031Z,9.30
2018-12-22T20:26:41.941Z,9.23
2018-12-22T20:29:11.752Z,7.60
2018-12-22T20:31:41.673Z,8.10
2018-12-22T20:34:11.571Z,8.43
2018-12-22T20:36:41.603Z,9.23
2018-12-22T20:39:11.650Z,8.33
2018-12-22T20:41:41.535Z,8.00
2018-12-22T20:44:11.455Z,7.67
2018-12-22T20:46:41.257Z,8.73
2018-12-22T20:49:11.283Z,8.23
2018-12-22T20:51:41.217Z,7.80
2018-12-22T20:54:11.164Z,9.03
2018-12-22T20:56:41.126Z,8.67
2018-12-22T20:59:12.636Z,8.63
2018-12-22T21:01:42.693Z,8.53
2018-12-22T21:04:19.863Z,8.33
2018-12-22T21:06:44.732Z,8.73
2018-12-22T21:09:15.718Z,8.13
2018-12-22T21:11:45.995Z,7.63
2018-12-22T21:14:15.854Z,7.70
2018-12-22T21:16:45.886Z,7.17
2018-12-22T21:19:15.921Z,8.30
2018-12-22T21:21:45.823Z,9.03
2018-12-22T21:24:15.828Z,8.73
2018-12-22T21:26:45.654Z,8.57
2018-12-22T21:29:15.753Z,8.43
2018-12-22T21:31:45.828Z,7.63
2018-12-22T21:34:15.743Z,8.23
2018-12-22T21:36:45.706Z,8.20
2018-12-22T21:39:15.654Z,8.27
2018-12-22T21:41:45.637Z,8.00
2018-12-22T21:44:15.607Z,7.57
2018-12-22T21:46:45.465Z,7.97
2018-12-22T21:49:15.513Z,8.13
2018-12-22T21:51:45.463Z,8.47
2018-12-22T21:54:15.417Z,8.57
2018-12-22T21:56:45.357Z,7.03
2018-12-22T21:59:15.273Z,7.47
2018-12-22T22:01:45.265Z,8.70
2018-12-22T22:04:15.080Z,7.60
2018-12-22T22:06:44.989Z,7.77
2018-12-22T22:09:15.038Z,8.47
2018-12-22T22:11:44.956Z,7.63
2018-12-22T22:14:14.979Z,8.40
2018-12-22T22:16:44.869Z,8.77
2018-12-22T22:19:14.875Z,7.87
2018-12-22T22:21:44.805Z,7.77
2018-12-22T22:24:14.759Z,9.40
2018-12-22T22:26:44.721Z,7.30
2018-12-22T22:29:14.591Z,8.50
2018-12-22T22:31:44.584Z,8.87
2018-12-22T22:34:14.579Z,7.83
2018-12-22T22:36:44.481Z,9.10
2018-12-22T22:39:14.425Z,8.60
2018-12-22T22:41:44.413Z,8.33
2018-12-22T22:44:14.357Z,8.23
2018-12-22T22:46:44.304Z,7.37
2018-12-22T22:49:14.292Z,8.60
2018-12-22T22:51:44.176Z,8.27
2018-12-22T22:54:14.196Z,7.50
2018-12-22T22:56:44.108Z,7.47
2018-12-22T22:59:14.083Z,7.73
2018-12-22T23:01:44.068Z,8.43
2018-12-22T23:04:14.024Z,8.30
2018-12-22T23:06:43.972Z,8.43
2018-12-22T23:09:14.016Z,7.23
2018-12-22T23:11:43.917Z,9.60
2018-12-22T23:14:13.826Z,7.63
2018-12-22T23:16:43.637Z,9.50
2018-12-22T23:19:13.678Z,8.07
2018-12-22T23:21:43.697Z,7.73
2018-12-22T23:24:13.585Z,9.27
2018-12-22T23:26:43.497Z,8.87
2018-12-22T23:29:13.312Z,8.80
2018-12-22T23:31:43.289Z,8.23
2018-12-22T23:34:13.373Z,9.60
2018-12-22T23:36:43.256Z,7.20
2018-12-22T23:39:13.276Z,8.33
2018-12-22T23:41:43.220Z,8.10
2018-12-22T23:44:13.166Z,7.30
2018-12-22T23:46:43.125Z,8.40
2018-12-22T23:49:13.046Z,9.30
2018-12-22T23:51:42.953Z,7.33
2018-12-22T23:54:12.877Z,8.50
2018-12-22T23:56:42.946Z,8.03
2018-12-22T23:59:16.519Z,8.23
